createdAt,value
2022-11-06T00:05:45.352Z,1.33
2022-11-06T00:12:58.633Z,1.88
2022-11-06T00:15:32.668Z,1.10
2022-11-06T00:18:20.473Z,1.40
2022-11-06T00:20:57.248Z,1.40
2022-11-06T00:23:35.592Z,1.40
2022-11-06T00:26:09.648Z,1.55
2022-11-06T00:28:38.921Z,1.17
2022-11-06T00:31:11.181Z,1.40
2022-11-06T00:33:40.796Z,1.52
2022-11-06T00:36:15.253Z,1.92
2022-11-06T00:38:51.223Z,1.30
2022-11-06T00:41:21.021Z,1.10
2022-11-06T00:43:52.632Z,2.58
2022-11-06T00:46:22.352Z,1.48
2022-11-06T00:48:51.771Z,1.45
2022-11-06T00:51:26.938Z,1.40
2022-11-06T00:54:04.463Z,1.35
2022-11-06T00:56:33.980Z,2.05
2022-11-06T00:59:06.700Z,1.63
2022-11-06T01:01:41.775Z,1.67
2022-11-06T01:04:20.528Z,1.60
2022-11-06T01:06:54.309Z,1.58
2022-11-06T01:09:25.865Z,1.60
2022-11-06T01:12:14.486Z,1.42
2022-11-06T01:14:44.696Z,1.83
2022-11-06T01:17:14.127Z,1.67
2022-11-06T01:19:43.010Z,1.48
2022-11-06T01:22:11.836Z,1.67
2022-11-06T01:24:41.110Z,1.65
2022-11-06T01:27:27.207Z,1.80
2022-11-06T01:29:57.707Z,1.70
2022-11-06T01:32:26.601Z,1.95
2022-11-06T01:34:55.509Z,1.70
2022-11-06T01:37:24.428Z,1.63
2022-11-06T01:39:53.591Z,1.60
2022-11-06T01:42:25.643Z,1.65
2022-11-06T01:45:36.111Z,1.83
2022-11-06T01:48:12.524Z,1.73
2022-11-06T01:50:48.840Z,1.65
2022-11-06T01:53:18.574Z,1.95
2022-11-06T01:55:52.964Z,1.67
2022-11-06T01:58:27.550Z,1.80
2022-11-06T02:00:57.327Z,2.00
2022-11-06T02:03:26.718Z,2.53
2022-11-06T02:05:57.928Z,1.80
2022-11-06T02:08:27.812Z,2.00
2022-11-06T02:10:59.387Z,2.20
2022-11-06T02:13:57.422Z,2.47
2022-11-06T02:16:50.081Z,2.08
2022-11-06T02:19:50.018Z,1.73
2022-11-06T02:22:37.429Z,2.83
2022-11-06T02:28:09.358Z,2.42
2022-11-06T02:30:45.983Z,2.45
2022-11-06T02:33:50.156Z,2.15
2022-11-06T02:36:24.414Z,2.30
2022-11-06T02:39:00.616Z,2.53
2022-11-06T02:41:41.690Z,2.10
2022-11-06T02:44:18.434Z,3.25
2022-11-06T02:49:53.914Z,2.88
2022-11-06T02:52:27.056Z,2.33
2022-11-06T02:55:05.165Z,2.53
2022-11-06T02:57:39.094Z,2.53
2022-11-06T03:00:12.233Z,2.05
2022-11-06T03:02:51.092Z,2.40
2022-11-06T03:05:27.876Z,2.20
2022-11-06T03:08:04.938Z,2.58
2022-11-06T03:11:07.569Z,2.47
2022-11-06T03:14:03.709Z,2.25
2022-11-06T03:16:59.827Z,1.65
2022-11-06T03:19:49.282Z,2.28
2022-11-06T03:22:37.912Z,2.40
2022-11-06T03:25:36.681Z,2.42
2022-11-06T03:28:12.353Z,2.10
2022-11-06T03:30:51.341Z,2.13
2022-11-06T03:33:26.463Z,2.00
2022-11-06T03:36:30.764Z,1.98
2022-11-06T03:39:07.979Z,2.70
2022-11-06T03:42:08.126Z,2.65
2022-11-06T03:44:44.597Z,2.33
2022-11-06T03:47:22.530Z,1.77
2022-11-06T03:49:59.192Z,2.22
2022-11-06T03:55:20.997Z,2.22
2022-11-06T03:58:05.610Z,2.65
2022-11-06T04:00:52.870Z,2.78
2022-11-06T04:03:35.435Z,2.55
2022-11-06T04:06:15.821Z,2.70
2022-11-06T04:09:08.103Z,2.15
2022-11-06T04:11:58.763Z,2.70
2022-11-06T04:14:31.746Z,2.55
2022-11-06T04:17:11.811Z,2.20
2022-11-06T04:19:51.944Z,3.05
2022-11-06T04:22:39.169Z,3.00
2022-11-06T04:25:44.756Z,2.42
2022-11-06T04:28:25.647Z,2.58
2022-11-06T04:31:06.754Z,2.35
2022-11-06T04:33:59.199Z,2.85
2022-11-06T04:36:42.235Z,2.58
2022-11-06T04:39:19.045Z,2.17
2022-11-06T04:44:34.326Z,2.42
2022-11-06T04:47:09.682Z,2.30
2022-11-06T04:49:42.045Z,2.15
2022-11-06T04:52:19.796Z,2.92
2022-11-06T04:54:51.328Z,2.10
2022-11-06T04:57:20.298Z,2.40
2022-11-06T04:59:53.371Z,2.20
2022-11-06T05:02:22.452Z,2.50
2022-11-06T05:04:51.196Z,1.98
2022-11-06T05:07:20.240Z,2.40
2022-11-06T05:09:50.767Z,2.50
2022-11-06T05:12:20.410Z,2.22
2022-11-06T05:14:50.613Z,2.70
2022-11-06T05:17:19.609Z,2.15
2022-11-06T05:19:50.173Z,2.00
2022-11-06T05:22:37.354Z,2.10
2022-11-06T05:25:06.635Z,1.92
2022-11-06T05:27:35.913Z,2.35
2022-11-06T05:30:04.989Z,2.25
2022-11-06T05:32:34.373Z,2.10
2022-11-06T05:35:03.201Z,2.53
2022-11-06T05:37:31.946Z,2.45
2022-11-06T05:40:01.065Z,2.08
2022-11-06T05:42:32.628Z,1.73
2022-11-06T05:45:01.527Z,1.90
2022-11-06T05:47:33.521Z,2.15
2022-11-06T05:50:03.733Z,1.70
2022-11-06T05:52:32.629Z,1.80
2022-11-06T05:55:01.407Z,1.80
2022-11-06T05:57:39.483Z,2.20
2022-11-06T06:00:09.238Z,1.92
2022-11-06T06:02:47.648Z,1.85
2022-11-06T06:05:16.641Z,1.83
2022-11-06T06:07:45.406Z,1.90
2022-11-06T06:10:17.175Z,1.80
2022-11-06T06:12:46.119Z,1.75
2022-11-06T06:15:16.812Z,1.92
2022-11-06T06:17:47.327Z,1.90
2022-11-06T06:20:21.585Z,2.03
2022-11-06T06:22:56.462Z,1.90
2022-11-06T06:25:28.572Z,2.08
2022-11-06T06:27:58.229Z,1.90
2022-11-06T06:31:20.279Z,1.98
2022-11-06T06:33:50.248Z,1.67
2022-11-06T06:36:19.130Z,1.67
2022-11-06T06:38:52.618Z,1.80
2022-11-06T06:41:22.184Z,1.65
2022-11-06T06:43:51.945Z,1.67
2022-11-06T06:46:20.811Z,1.50
2022-11-06T06:48:55.679Z,2.05
2022-11-06T06:51:24.479Z,1.92
2022-11-06T06:53:56.497Z,1.73
2022-11-06T06:56:25.440Z,1.35
2022-11-06T06:58:57.502Z,2.33
2022-11-06T07:01:29.843Z,1.80
2022-11-06T07:04:04.484Z,1.60
2022-11-06T07:10:46.990Z,1.70
2022-11-06T07:13:18.715Z,1.60
2022-11-06T07:15:47.477Z,1.10
2022-11-06T07:21:21.421Z,1.77
2022-11-06T07:23:53.506Z,1.30
2022-11-06T07:26:22.335Z,1.50
2022-11-06T07:28:52.466Z,1.38
2022-11-06T07:31:24.333Z,1.60
2022-11-06T07:33:53.248Z,1.27
2022-11-06T07:37:15.512Z,1.80
2022-11-06T07:39:51.513Z,1.30
2022-11-06T07:42:29.140Z,1.30
2022-11-06T07:45:05.710Z,1.55
2022-11-06T07:47:34.493Z,1.70
2022-11-06T07:50:03.335Z,1.63
2022-11-06T07:52:38.107Z,2.10
2022-11-06T07:55:18.540Z,1.73
2022-11-06T07:57:49.634Z,1.80
2022-11-06T08:00:22.291Z,2.08
2022-11-06T08:02:55.731Z,1.33
2022-11-06T08:05:28.122Z,1.77
2022-11-06T08:08:07.084Z,1.63
2022-11-06T08:10:38.493Z,1.50
2022-11-06T08:13:08.242Z,1.90
2022-11-06T08:15:39.495Z,1.40
2022-11-06T08:18:09.938Z,1.33
2022-11-06T08:20:41.325Z,1.50
2022-11-06T08:23:13.600Z,1.33
2022-11-06T08:25:42.517Z,1.55
2022-11-06T08:28:12.706Z,1.60
2022-11-06T08:30:41.781Z,2.95
2022-11-06T08:33:12.767Z,1.75
2022-11-06T08:36:05.633Z,1.58
2022-11-06T08:38:40.876Z,1.33
2022-11-06T08:41:13.750Z,1.40
2022-11-06T08:43:42.596Z,1.60
2022-11-06T08:46:51.736Z,0.93
2022-11-06T08:49:24.010Z,1.42
2022-11-06T08:51:59.246Z,1.25
2022-11-06T08:54:29.809Z,1.25
2022-11-06T08:57:01.799Z,1.08
2022-11-06T08:59:34.013Z,1.40
2022-11-06T09:02:05.975Z,1.10
2022-11-06T09:04:40.131Z,1.42
2022-11-06T09:07:11.045Z,1.40
2022-11-06T09:09:40.002Z,1.40
2022-11-06T09:12:09.055Z,0.98
2022-11-06T09:14:38.422Z,1.27
2022-11-06T09:17:07.371Z,1.00
2022-11-06T09:19:36.181Z,1.20
2022-11-06T09:22:04.924Z,1.10
2022-11-06T09:25:01.294Z,1.45
2022-11-06T09:27:22.645Z,1.13
2022-11-06T09:29:52.356Z,1.23
2022-11-06T09:32:21.301Z,1.83
2022-11-06T09:34:50.229Z,1.02
2022-11-06T09:37:21.416Z,1.15
2022-11-06T09:39:51.344Z,1.30
2022-11-06T09:42:28.392Z,1.10
2022-11-06T09:45:09.557Z,1.20
2022-11-06T09:47:45.538Z,1.33
2022-11-06T09:50:25.024Z,1.00
2022-11-06T09:53:05.904Z,1.17
2022-11-06T09:55:40.864Z,1.15
2022-11-06T09:58:24.866Z,1.25
2022-11-06T10:00:55.854Z,1.20
2022-11-06T10:03:52.121Z,1.08
2022-11-06T10:06:23.510Z,1.33
2022-11-06T10:08:55.522Z,0.90
2022-11-06T10:11:42.343Z,1.20
2022-11-06T10:14:34.063Z,1.10
2022-11-06T10:17:03.174Z,0.90
2022-11-06T10:20:01.041Z,1.40
2022-11-06T10:22:51.582Z,1.05
2022-11-06T10:25:41.752Z,1.50
2022-11-06T10:28:44.517Z,1.25
2022-11-06T10:31:20.248Z,0.88
2022-11-06T10:33:51.759Z,0.80
2022-11-06T10:36:40.974Z,1.20
2022-11-06T10:39:21.340Z,1.05
2022-11-06T10:42:00.946Z,0.98
2022-11-06T10:44:42.390Z,1.00
2022-11-06T10:47:41.784Z,1.00
2022-11-06T10:50:16.416Z,1.10
2022-11-06T10:53:03.248Z,0.85
2022-11-06T10:55:43.363Z,0.93
2022-11-06T10:58:21.875Z,1.00
2022-11-06T11:00:54.343Z,0.80
2022-11-06T11:03:46.549Z,0.90
2022-11-06T11:06:15.342Z,0.85
2022-11-06T11:08:47.249Z,0.82
2022-11-06T11:11:18.894Z,0.80
2022-11-06T11:14:11.769Z,0.88
2022-11-06T11:16:43.558Z,0.93
2022-11-06T11:19:36.107Z,0.73
2022-11-06T11:22:18.529Z,0.77
2022-11-06T11:25:09.957Z,0.70
2022-11-06T11:27:46.444Z,0.90
2022-11-06T11:30:29.654Z,0.85
2022-11-06T11:32:59.024Z,0.70
2022-11-06T11:35:30.682Z,0.80
2022-11-06T11:38:14.469Z,0.70
2022-11-06T11:40:44.337Z,0.85
2022-11-06T11:43:29.338Z,0.82
2022-11-06T11:46:11.181Z,0.93
2022-11-06T11:48:48.338Z,0.95
2022-11-06T11:51:28.806Z,0.85
2022-11-06T11:54:27.005Z,0.77
2022-11-06T11:57:07.292Z,0.98
2022-11-06T11:59:52.728Z,0.98
2022-11-06T12:02:30.433Z,0.80
2022-11-06T12:05:22.472Z,0.90
2022-11-06T12:08:00.372Z,1.00
2022-11-06T12:10:44.300Z,0.60
2022-11-06T12:13:23.739Z,0.70
2022-11-06T12:16:19.373Z,0.90
2022-11-06T12:18:58.646Z,0.70
2022-11-06T12:21:28.199Z,0.73
2022-11-06T12:24:13.849Z,0.68
2022-11-06T12:27:08.984Z,0.90
2022-11-06T12:29:43.632Z,0.93
2022-11-06T12:32:24.608Z,0.77
2022-11-06T12:35:06.079Z,0.80
2022-11-06T12:37:59.515Z,0.88
2022-11-06T12:41:04.082Z,0.90
2022-11-06T12:43:48.210Z,1.00
2022-11-06T12:46:29.064Z,0.80
2022-11-06T12:49:40.997Z,0.70
2022-11-06T12:52:25.957Z,0.80
2022-11-06T12:55:05.503Z,0.80
2022-11-06T12:57:53.332Z,1.10
2022-11-06T13:00:31.427Z,0.80
2022-11-06T13:03:31.196Z,1.00
2022-11-06T13:06:20.223Z,0.73
2022-11-06T13:09:18.548Z,0.73
2022-11-06T13:12:15.253Z,0.70
2022-11-06T13:15:22.007Z,0.60
2022-11-06T13:18:00.861Z,0.57
2022-11-06T13:20:38.549Z,0.95
2022-11-06T13:23:42.274Z,1.27
2022-11-06T13:26:21.348Z,0.80
2022-11-06T13:29:00.414Z,0.90
2022-11-06T13:31:44.098Z,0.93
2022-11-06T13:34:25.400Z,0.80
2022-11-06T13:36:57.370Z,1.00
2022-11-06T13:39:31.159Z,0.70
2022-11-06T13:42:03.445Z,0.70
2022-11-06T13:44:33.885Z,0.98
2022-11-06T13:47:15.326Z,0.80
2022-11-06T13:50:02.447Z,0.80
2022-11-06T13:52:56.429Z,0.70
2022-11-06T13:55:30.873Z,0.70
2022-11-06T13:58:15.017Z,0.70
2022-11-06T14:00:56.381Z,0.80
2022-11-06T14:03:43.208Z,0.55
2022-11-06T14:06:22.737Z,0.80
2022-11-06T14:09:00.010Z,0.60
2022-11-06T14:11:34.129Z,0.70
2022-11-06T14:14:22.929Z,0.73
2022-11-06T14:17:30.387Z,0.65
2022-11-06T14:20:22.946Z,0.93
2022-11-06T14:22:54.666Z,0.77
2022-11-06T14:25:29.697Z,0.90
2022-11-06T14:27:58.676Z,0.98
2022-11-06T14:31:05.283Z,0.70
2022-11-06T14:33:45.264Z,0.60
2022-11-06T14:36:31.236Z,0.70
2022-11-06T14:39:00.119Z,0.70
2022-11-06T14:41:35.804Z,0.70
2022-11-06T14:44:31.962Z,0.70
2022-11-06T14:47:04.406Z,0.80
2022-11-06T14:49:50.619Z,0.70
2022-11-06T14:52:27.039Z,0.63
2022-11-06T14:55:10.124Z,0.98
2022-11-06T14:57:42.092Z,0.65
2022-11-06T15:00:33.643Z,0.63
2022-11-06T15:03:05.111Z,0.75
2022-11-06T15:05:42.309Z,0.80
2022-11-06T15:08:12.358Z,0.68
2022-11-06T15:10:44.132Z,0.75
2022-11-06T15:13:19.605Z,1.08
2022-11-06T15:15:57.824Z,0.70
2022-11-06T15:18:28.843Z,0.88
2022-11-06T15:21:04.928Z,0.88
2022-11-06T15:23:47.529Z,0.77
2022-11-06T15:26:35.509Z,1.10
2022-11-06T15:29:18.888Z,1.08
2022-11-06T15:32:01.615Z,0.88
2022-11-06T15:34:42.628Z,0.80
2022-11-06T15:37:23.173Z,0.80
2022-11-06T15:40:00.988Z,0.90
2022-11-06T15:42:38.075Z,0.93
2022-11-06T15:45:28.351Z,0.83
2022-11-06T15:48:02.513Z,0.63
2022-11-06T15:50:36.565Z,0.70
2022-11-06T15:53:17.475Z,0.70
2022-11-06T15:55:55.273Z,0.73
2022-11-06T15:58:37.801Z,0.90
2022-11-06T16:02:18.090Z,4.90
2022-11-06T16:05:08.830Z,0.75
2022-11-06T16:07:37.834Z,0.70
2022-11-06T16:10:07.462Z,0.90
2022-11-06T16:12:47.737Z,1.00
2022-11-06T16:15:44.803Z,1.20
2022-11-06T16:18:43.121Z,2.40
2022-11-06T16:21:20.118Z,0.90
2022-11-06T16:24:13.249Z,1.00
2022-11-06T16:26:53.679Z,0.70
2022-11-06T16:29:29.041Z,0.70
2022-11-06T16:32:10.339Z,0.57
2022-11-06T16:34:44.803Z,1.77
2022-11-06T16:37:19.475Z,1.42
2022-11-06T16:39:54.855Z,1.10
2022-11-06T16:42:23.607Z,1.88
2022-11-06T16:45:22.128Z,1.10
2022-11-06T16:48:17.523Z,1.10
2022-11-06T16:50:57.437Z,1.08
2022-11-06T16:53:32.385Z,1.00
2022-11-06T16:56:04.620Z,1.10
2022-11-06T16:58:47.576Z,0.90
2022-11-06T17:01:20.617Z,0.80
2022-11-06T17:04:03.788Z,0.60
2022-11-06T17:06:36.233Z,0.85
2022-11-06T17:09:27.846Z,0.60
2022-11-06T17:11:58.714Z,0.93
2022-11-06T17:14:28.159Z,0.65
2022-11-06T17:16:59.590Z,0.82
2022-11-06T17:19:29.648Z,0.70
2022-11-06T17:21:58.979Z,0.70
2022-11-06T17:24:43.129Z,0.82
2022-11-06T17:27:12.289Z,0.98
2022-11-06T17:29:41.047Z,1.00
2022-11-06T17:32:09.911Z,0.90
2022-11-06T17:34:41.430Z,0.90
2022-11-06T17:37:12.926Z,0.80
2022-11-06T17:39:41.746Z,1.63
2022-11-06T17:42:10.448Z,3.08
2022-11-06T17:44:39.210Z,3.17
2022-11-06T17:47:08.162Z,3.60
2022-11-06T17:50:49.729Z,1.77
2022-11-06T17:53:45.937Z,1.88
2022-11-06T17:56:28.449Z,1.80
2022-11-06T17:58:57.434Z,1.40
2022-11-06T18:01:26.389Z,1.02
2022-11-06T18:03:55.358Z,1.83
2022-11-06T18:06:24.208Z,3.03
2022-11-06T18:09:00.842Z,2.88
2022-11-06T18:11:31.551Z,2.70
2022-11-06T18:14:03.881Z,2.38
2022-11-06T18:16:40.963Z,2.10
2022-11-06T18:19:23.470Z,1.65
2022-11-06T18:28:11.730Z,18.60
2022-11-06T18:30:55.668Z,17.52
2022-11-06T18:33:37.804Z,13.52
2022-11-06T18:36:15.238Z,2.40
2022-11-06T18:38:44.864Z,1.40
2022-11-06T18:41:34.227Z,1.17
2022-11-06T18:44:39.100Z,1.00
2022-11-06T18:47:07.965Z,2.03
2022-11-06T18:49:36.721Z,1.90
2022-11-06T18:52:05.624Z,1.60
2022-11-06T18:54:37.638Z,1.40
2022-11-06T19:01:57.702Z,1.40
2022-11-06T19:04:25.965Z,2.58
2022-11-06T19:06:57.991Z,2.80
2022-11-06T19:09:27.135Z,4.70
2022-11-06T19:11:59.190Z,3.63
2022-11-06T19:14:29.322Z,1.45
2022-11-06T19:16:58.148Z,5.30
2022-11-06T19:19:26.981Z,4.50
2022-11-06T19:21:56.707Z,3.47
2022-11-06T19:24:26.729Z,5.47
2022-11-06T19:26:57.064Z,5.50
2022-11-06T19:29:37.329Z,7.53
2022-11-06T19:32:31.097Z,2.90
2022-11-06T19:35:03.662Z,1.33
2022-11-06T19:37:33.372Z,1.42
2022-11-06T19:40:06.028Z,1.50
2022-11-06T19:42:38.045Z,1.40
2022-11-06T19:45:07.477Z,1.10
2022-11-06T19:47:37.956Z,2.40
2022-11-06T19:50:07.247Z,1.02
2022-11-06T19:52:43.310Z,0.90
2022-11-06T19:55:26.696Z,0.80
2022-11-06T19:58:02.899Z,0.85
2022-11-06T20:00:44.401Z,0.80
2022-11-06T20:03:17.453Z,0.98
2022-11-06T20:05:47.501Z,0.95
2022-11-06T20:08:17.911Z,0.85
2022-11-06T20:10:47.034Z,1.20
2022-11-06T20:13:16.157Z,0.73
2022-11-06T20:15:51.103Z,0.77
2022-11-06T20:18:19.971Z,0.80
2022-11-06T20:20:48.815Z,0.75
2022-11-06T20:23:18.134Z,1.00
2022-11-06T20:25:46.969Z,1.15
2022-11-06T20:28:17.875Z,1.20
2022-11-06T20:30:48.952Z,1.30
2022-11-06T20:33:18.467Z,1.80
2022-11-06T20:35:47.706Z,2.30
2022-11-06T20:38:16.970Z,2.10
2022-11-06T20:40:46.226Z,2.55
2022-11-06T20:43:18.212Z,2.20
2022-11-06T20:45:47.080Z,1.90
2022-11-06T20:48:18.288Z,1.35
2022-11-06T20:53:51.700Z,1.65
2022-11-06T20:56:27.741Z,1.48
2022-11-06T20:58:57.900Z,1.17
2022-11-06T21:01:29.426Z,1.23
2022-11-06T21:03:59.096Z,2.25
2022-11-06T21:06:35.203Z,2.28
2022-11-06T21:09:04.113Z,1.27
2022-11-06T21:11:33.081Z,1.20
2022-11-06T21:14:03.518Z,1.20
2022-11-06T21:16:35.336Z,2.63
2022-11-06T21:19:06.249Z,2.50
2022-11-06T21:21:38.181Z,2.58
2022-11-06T21:24:07.782Z,3.78
2022-11-06T21:26:38.433Z,5.75
2022-11-06T21:29:11.277Z,6.00
2022-11-06T21:31:47.563Z,6.47
2022-11-06T21:34:18.770Z,4.22
2022-11-06T21:36:48.695Z,4.00
2022-11-06T21:39:19.822Z,4.10
2022-11-06T21:41:49.179Z,3.58
2022-11-06T21:44:19.221Z,3.00
2022-11-06T21:46:48.266Z,3.45
2022-11-06T21:49:17.118Z,3.53
2022-11-06T21:51:51.186Z,2.30
2022-11-06T21:54:42.483Z,2.38
2022-11-06T21:58:04.111Z,1.98
2022-11-06T22:09:55.328Z,1.05
2022-11-06T22:12:24.824Z,0.95
2022-11-06T22:14:56.869Z,1.50
2022-11-06T22:17:34.871Z,1.73
2022-11-06T22:20:15.062Z,2.30
2022-11-06T22:22:44.464Z,2.63
2022-11-06T22:25:13.660Z,2.50
2022-11-06T22:28:01.209Z,2.40
2022-11-06T22:30:43.361Z,2.35
2022-11-06T22:33:23.634Z,2.00
2022-11-06T22:36:04.352Z,3.40
2022-11-06T22:38:51.901Z,2.60
2022-11-06T22:41:28.781Z,3.90
2022-11-06T22:44:07.397Z,9.00
2022-11-06T22:46:36.542Z,14.57
2022-11-06T22:49:06.317Z,14.95
2022-11-06T22:51:38.220Z,5.28
2022-11-06T22:54:07.081Z,2.85
2022-11-06T22:56:35.774Z,1.75
2022-11-06T22:59:09.325Z,1.33
2022-11-06T23:01:42.512Z,1.58
2022-11-06T23:13:45.665Z,1.10
2022-11-06T23:16:22.149Z,1.17
2022-11-06T23:18:51.777Z,1.98
2022-11-06T23:21:20.716Z,2.30
2022-11-06T23:23:52.468Z,4.72
2022-11-06T23:26:24.400Z,4.03
2022-11-06T23:28:56.393Z,3.20
2022-11-06T23:31:25.757Z,5.50
2022-11-06T23:33:56.081Z,5.53
2022-11-06T23:36:25.250Z,2.67
2022-11-06T23:38:55.134Z,2.17
2022-11-06T23:41:44.034Z,1.20
2022-11-06T23:44:32.360Z,1.30
2022-11-06T23:47:02.888Z,1.10
2022-11-06T23:49:31.850Z,1.30
2022-11-06T23:52:00.937Z,1.60
2022-11-06T23:54:30.488Z,4.25
2022-11-06T23:56:59.357Z,3.03
2022-11-06T23:59:28.223Z,1.80
